createdAt,value
2023-04-20T00:02:13.500Z,61.90
2023-04-20T00:07:15.215Z,646.53
2023-04-20T00:12:18.082Z,466.20
2023-04-20T00:17:19.693Z,77.50
2023-04-20T00:22:21.284Z,45.75
2023-04-20T00:27:24.187Z,43.58
2023-04-20T00:32:25.799Z,38.85
2023-04-20T00:37:27.406Z,51.10
2023-04-20T00:42:30.363Z,600.10
2023-04-20T00:47:32.025Z,700.22
2023-04-20T00:52:33.926Z,707.63
2023-04-20T00:57:37.026Z,726.15
2023-04-20T01:02:38.743Z,478.30
2023-04-20T01:07:40.598Z,540.78
2023-04-20T01:12:44.321Z,506.83
2023-04-20T01:17:45.966Z,497.23
2023-04-20T01:22:50.533Z,727.30
2023-04-20T01:27:52.093Z,755.25
2023-04-20T01:32:53.699Z,605.50
2023-04-20T01:37:56.670Z,563.90
2023-04-20T01:42:58.265Z,579.92
2023-04-20T01:48:00.911Z,237.73
2023-04-20T01:53:03.833Z,48.53
2023-04-20T01:58:05.505Z,21.73
2023-04-20T02:03:07.214Z,30.90
2023-04-20T02:08:10.266Z,31.70
2023-04-20T02:13:11.817Z,21.83
2023-04-20T02:18:13.374Z,19.70
2023-04-20T02:23:16.345Z,29.48
2023-04-20T02:28:18.052Z,27.35
2023-04-20T02:33:19.589Z,32.60
2023-04-20T02:38:22.580Z,24.42
2023-04-20T02:43:24.178Z,28.60
2023-04-20T02:48:25.758Z,31.85
2023-04-20T02:53:28.661Z,25.83
2023-04-20T02:58:31.176Z,20.83
2023-04-20T03:03:33.206Z,39.50
2023-04-20T03:08:36.252Z,40.65
2023-04-20T03:13:37.933Z,27.15
2023-04-20T03:18:39.538Z,34.33
2023-04-20T03:23:42.454Z,35.70
2023-04-20T03:28:44.037Z,31.35
2023-04-20T03:33:45.589Z,22.98
2023-04-20T03:38:48.483Z,24.80
2023-04-20T03:43:50.063Z,32.88
2023-04-20T03:48:51.625Z,29.05
2023-04-20T03:53:54.495Z,31.05
2023-04-20T03:58:56.105Z,36.65
2023-04-20T04:03:58.107Z,35.67
2023-04-20T04:09:01.234Z,23.13
2023-04-20T04:14:02.978Z,27.25
2023-04-20T04:19:04.534Z,41.17
2023-04-20T04:24:07.960Z,25.35
2023-04-20T04:29:09.580Z,33.35
2023-04-20T04:34:11.147Z,31.65
2023-04-20T04:39:14.092Z,25.80
2023-04-20T04:44:15.646Z,22.67
2023-04-20T04:49:17.313Z,19.15
2023-04-20T04:54:20.812Z,22.70
2023-04-20T04:59:22.729Z,29.20
2023-04-20T05:04:24.336Z,24.63
2023-04-20T05:09:27.270Z,34.08
2023-04-20T05:14:28.970Z,55.97
2023-04-20T05:19:30.515Z,34.85
2023-04-20T05:24:33.408Z,23.33
2023-04-20T05:29:35.313Z,27.02
2023-04-20T05:34:36.924Z,34.05
2023-04-20T05:39:39.806Z,29.52
2023-04-20T05:44:41.366Z,26.48
2023-04-20T05:49:42.961Z,24.52
2023-04-20T05:54:45.907Z,21.90
2023-04-20T05:59:47.460Z,25.45
2023-04-20T06:04:49.052Z,26.13
2023-04-20T06:09:52.050Z,23.83
2023-04-20T06:14:53.662Z,47.78
2023-04-20T06:19:55.414Z,42.50
2023-04-20T06:24:59.633Z,41.53
2023-04-20T06:30:01.809Z,44.60
2023-04-20T06:35:03.600Z,31.60
2023-04-20T06:40:07.879Z,48.67
2023-04-20T06:45:10.435Z,48.70
2023-04-20T06:50:12.401Z,49.67
2023-04-20T06:55:15.314Z,68.15
2023-04-20T07:00:17.736Z,50.65
2023-04-20T07:05:19.382Z,33.58
2023-04-20T07:10:22.607Z,34.85
2023-04-20T07:15:24.332Z,36.88
2023-04-20T07:20:25.906Z,65.38
2023-04-20T07:25:29.336Z,62.22
2023-04-20T07:30:31.258Z,72.57
2023-04-20T07:35:32.848Z,46.65
2023-04-20T07:40:35.734Z,31.35
2023-04-20T07:45:39.508Z,79.63
2023-04-20T07:50:41.210Z,68.80
2023-04-20T07:55:44.133Z,47.05
2023-04-20T08:00:45.940Z,52.85
2023-04-20T08:05:47.466Z,53.00
2023-04-20T08:10:50.323Z,86.45
2023-04-20T08:15:51.902Z,69.82
2023-04-20T08:20:53.378Z,62.53
2023-04-20T08:25:56.485Z,52.03
2023-04-20T08:30:58.036Z,64.07
2023-04-20T08:35:59.538Z,61.67
2023-04-20T08:41:02.723Z,50.03
2023-04-20T08:46:04.327Z,49.22
2023-04-20T08:51:06.184Z,34.00
2023-04-20T08:56:09.712Z,35.40
2023-04-20T09:01:15.455Z,45.58
2023-04-20T09:06:19.353Z,44.63
2023-04-20T09:11:24.189Z,45.75
2023-04-20T09:16:25.815Z,57.45
2023-04-20T09:21:28.477Z,88.80
2023-04-20T09:26:33.485Z,118.97
2023-04-20T09:31:36.648Z,57.15
2023-04-20T09:36:39.311Z,69.38
2023-04-20T09:41:43.644Z,44.38
2023-04-20T09:46:45.534Z,47.15
2023-04-20T09:51:47.188Z,50.63
2023-04-20T09:56:50.633Z,44.67
2023-04-20T10:01:52.312Z,43.45
2023-04-20T10:06:55.503Z,30.15
2023-04-20T10:12:08.190Z,32.42
2023-04-20T10:17:09.851Z,31.52
2023-04-20T10:22:13.704Z,36.53
2023-04-20T10:27:21.155Z,39.33
2023-04-20T10:32:24.383Z,45.60
2023-04-20T10:37:26.346Z,30.52
2023-04-20T10:42:29.178Z,29.58
2023-04-20T10:47:32.180Z,24.60
2023-04-20T10:52:33.786Z,21.65
2023-04-20T10:57:37.415Z,25.35
2023-04-20T11:02:46.449Z,27.42
2023-04-20T11:07:51.317Z,16.48
2023-04-20T11:12:54.146Z,24.58
2023-04-20T11:17:55.715Z,24.55
2023-04-20T11:22:57.544Z,21.30
2023-04-20T11:28:06.872Z,23.23
2023-04-20T11:33:08.662Z,24.58
2023-04-20T11:38:10.385Z,25.58
2023-04-20T11:43:13.229Z,23.38
2023-04-20T11:48:14.711Z,22.48
2023-04-20T11:53:16.219Z,22.77
2023-04-20T11:58:19.077Z,17.60
2023-04-20T12:03:20.764Z,20.38
2023-04-20T12:08:22.435Z,16.70
2023-04-20T12:13:25.407Z,14.27
2023-04-20T12:18:27.001Z,15.38
2023-04-20T12:23:28.554Z,23.88
2023-04-20T12:28:31.633Z,21.05
2023-04-20T12:38:50.910Z,19.58
2023-04-20T12:43:53.859Z,18.98
2023-04-20T12:48:55.455Z,18.38
2023-04-20T12:53:57.082Z,23.55
2023-04-20T12:58:59.987Z,22.00
2023-04-20T13:04:01.713Z,21.17
2023-04-20T13:09:04.033Z,17.17
2023-04-20T13:14:06.885Z,13.05
2023-04-20T13:19:08.433Z,14.55
2023-04-20T13:24:10.035Z,14.25
2023-04-20T13:29:12.954Z,16.05
2023-04-20T13:34:14.784Z,17.10
2023-04-20T13:39:16.559Z,17.50
2023-04-20T13:44:19.859Z,17.10
2023-04-20T13:49:21.669Z,18.65
2023-04-20T13:54:23.260Z,18.75
2023-04-20T13:59:26.128Z,15.25
2023-04-20T14:04:27.729Z,14.07
2023-04-20T14:09:31.188Z,15.88
2023-04-20T14:14:34.094Z,18.00
2023-04-20T14:19:35.634Z,17.75
2023-04-20T14:24:37.171Z,21.67
2023-04-20T14:29:40.479Z,22.42
2023-04-20T14:34:42.028Z,22.15
2023-04-20T14:39:43.584Z,23.52
2023-04-20T14:44:46.500Z,22.98
2023-04-20T14:49:48.044Z,25.67
2023-04-20T14:54:49.585Z,32.22
2023-04-20T14:59:53.082Z,28.45
2023-04-20T15:04:57.333Z,38.00
2023-04-20T15:09:58.970Z,30.95
2023-04-20T15:15:01.892Z,30.50
2023-04-20T15:20:03.993Z,24.33
2023-04-20T15:25:06.497Z,31.65
2023-04-20T15:30:10.628Z,24.77
2023-04-20T15:35:12.212Z,27.63
2023-04-20T15:40:14.933Z,25.48
2023-04-20T15:45:17.979Z,33.47
2023-04-20T15:50:19.894Z,31.27
2023-04-20T15:55:21.511Z,36.42
2023-04-20T16:00:24.937Z,35.10
2023-04-20T16:05:26.547Z,34.67
2023-04-20T16:10:28.140Z,43.80
2023-04-20T16:15:31.155Z,38.30
2023-04-20T16:20:32.754Z,31.73
2023-04-20T16:25:34.585Z,34.47
2023-04-20T16:30:37.471Z,37.70
2023-04-20T16:35:39.037Z,36.53
2023-04-20T16:40:41.587Z,33.95
2023-04-20T16:45:44.610Z,40.20
2023-04-20T16:50:46.203Z,40.60
2023-04-20T16:55:47.775Z,32.58
2023-04-20T17:00:50.700Z,37.35
2023-04-20T17:05:52.272Z,39.85
2023-04-20T17:10:53.867Z,37.53
2023-04-20T17:15:56.807Z,43.28
2023-04-20T17:20:58.589Z,49.55
2023-04-20T17:26:00.165Z,51.25
2023-04-20T17:31:03.203Z,52.80
2023-04-20T17:36:05.285Z,67.60
2023-04-20T17:41:06.833Z,54.65
2023-04-20T17:46:09.814Z,46.47
2023-04-20T17:51:12.936Z,54.47
2023-04-20T17:56:14.507Z,65.32
2023-04-20T18:01:17.412Z,58.25
2023-04-20T18:06:19.058Z,67.43
2023-04-20T18:11:20.628Z,54.05
2023-04-20T18:16:23.785Z,45.85
2023-04-20T18:21:25.433Z,50.85
2023-04-20T18:26:27.061Z,47.20
2023-04-20T18:31:30.065Z,40.97
2023-04-20T18:36:31.651Z,47.97
2023-04-20T18:41:33.203Z,55.50
2023-04-20T18:46:36.151Z,55.55
2023-04-20T18:51:37.746Z,64.43
2023-04-20T18:56:39.316Z,41.60
2023-04-20T19:01:42.296Z,49.25
2023-04-20T19:06:43.969Z,46.30
2023-04-20T19:11:45.538Z,54.83
2023-04-20T19:16:48.543Z,74.60
2023-04-20T19:21:50.167Z,77.22
2023-04-20T19:26:51.762Z,90.97
2023-04-20T19:31:54.787Z,96.53
2023-04-20T19:36:56.428Z,118.25
2023-04-20T19:41:58.010Z,157.13
2023-04-20T19:47:00.894Z,404.02
2023-04-20T19:52:02.817Z,296.83
2023-04-20T19:57:04.407Z,717.55
2023-04-20T20:02:07.387Z,477.02
2023-04-20T20:07:09.046Z,350.15
2023-04-20T20:12:10.664Z,426.40
2023-04-20T20:17:13.824Z,198.98
2023-04-20T20:22:15.469Z,258.35
2023-04-20T20:27:17.063Z,161.25
2023-04-20T20:32:19.961Z,150.82
2023-04-20T20:37:21.534Z,155.85
2023-04-20T20:42:23.094Z,173.52
2023-04-20T20:47:26.381Z,258.27
2023-04-20T20:52:27.935Z,170.73
2023-04-20T20:57:29.532Z,153.23
2023-04-20T21:02:32.591Z,119.88
2023-04-20T21:07:34.489Z,117.20
2023-04-20T21:12:36.084Z,135.50
2023-04-20T21:17:39.127Z,102.05
2023-04-20T21:22:40.721Z,81.90
2023-04-20T21:27:42.466Z,87.38
2023-04-20T21:32:45.537Z,131.57
2023-04-20T21:37:47.123Z,113.45
2023-04-20T21:42:48.726Z,52.70
2023-04-20T21:47:51.662Z,83.32
2023-04-20T21:52:53.740Z,79.47
2023-04-20T21:57:55.278Z,84.75
2023-04-20T22:02:58.409Z,98.55
2023-04-20T22:08:00.105Z,97.50
2023-04-20T22:13:01.704Z,106.85
2023-04-20T22:18:04.892Z,84.93
2023-04-20T22:23:06.588Z,100.65
2023-04-20T22:28:08.529Z,95.75
2023-04-20T22:33:11.426Z,81.47
2023-04-20T22:38:13.039Z,91.18
2023-04-20T22:43:14.638Z,80.32
2023-04-20T22:48:17.587Z,84.38
2023-04-20T22:53:19.144Z,68.55
2023-04-20T22:58:20.725Z,82.63
2023-04-20T23:03:23.890Z,154.85
2023-04-20T23:08:25.878Z,133.88
2023-04-20T23:13:27.426Z,104.53
2023-04-20T23:18:30.332Z,88.25
2023-04-20T23:23:31.928Z,81.05
2023-04-20T23:28:33.510Z,95.78
2023-04-20T23:33:36.380Z,84.18
2023-04-20T23:38:37.979Z,90.72
2023-04-20T23:43:40.404Z,140.35
2023-04-20T23:48:43.353Z,87.25
2023-04-20T23:53:44.930Z,84.18
2023-04-20T23:58:46.487Z,92.68
